Time;durP1;ratioP1;P1;durP2;ratioP2;P2;SDS_P1;SDS_P2;PMS_P1;PMS_P2;Temp;Humidity;BMP_temperature;BMP_pressure;BME280_temperature;BME280_humidity;BME280_pressure;Samples;Min_cycle;Max_cycle;Signal;HPM_P1;HPM_P2
2022/03/19 00:01:02;;;;;;;38.13;20.15;;;2.20;99.90;;;;;;5053597;28;20045;-68
2022/03/19 00:03:29;;;;;;;41.78;21.15;;;2.20;99.90;;;;;;5053645;28;20035;-68
2022/03/19 00:05:55;;;;;;;42.60;20.80;;;2.20;99.90;;;;;;5053830;28;20440;-68
2022/03/19 00:08:21;;;;;;;41.55;21.00;;;2.20;99.90;;;;;;5053862;28;20029;-68
2022/03/19 00:10:47;;;;;;;49.67;23.85;;;2.20;99.90;;;;;;5053455;28;20052;-68
2022/03/19 00:13:13;;;;;;;44.38;21.77;;;2.20;99.90;;;;;;5085710;28;20044;-68
2022/03/19 00:15:40;;;;;;;36.95;19.33;;;2.20;99.90;;;;;;5053440;28;20045;-68
2022/03/19 00:18:06;;;;;;;37.20;20.48;;;2.20;99.90;;;;;;5053658;28;20017;-68
2022/03/19 00:20:35;;;;;;;37.97;19.25;;;2.20;99.90;;;;;;5085562;28;20040;-68
2022/03/19 00:23:01;;;;;;;35.00;19.08;;;2.10;99.90;;;;;;5053366;28;20025;-68
2022/03/19 00:25:26;;;;;;;37.05;18.92;;;2.10;99.90;;;;;;5053608;28;20450;-68
2022/03/19 00:27:52;;;;;;;39.67;19.23;;;2.10;99.90;;;;;;5085556;28;20040;-68
2022/03/19 00:30:18;;;;;;;38.55;19.98;;;2.10;99.90;;;;;;5053262;28;20031;-69
2022/03/19 00:32:44;;;;;;;33.63;18.25;;;2.00;99.90;;;;;;5053230;28;20025;-69
2022/03/19 00:35:10;;;;;;;40.53;19.02;;;2.00;99.90;;;;;;5053262;28;20071;-68
2022/03/19 00:37:50;;;;;;;34.88;18.65;;;2.00;99.90;;;;;;5053470;28;20377;-68
2022/03/19 00:40:17;;;;;;;37.95;19.48;;;1.90;99.90;;;;;;5053422;28;20100;-69
2022/03/19 00:42:44;;;;;;;36.38;17.83;;;1.90;99.90;;;;;;5053151;28;20029;-69
2022/03/19 00:45:10;;;;;;;37.88;19.83;;;1.90;99.90;;;;;;5053137;28;20104;-69
2022/03/19 00:47:36;;;;;;;38.22;19.80;;;1.90;99.90;;;;;;5053155;28;20477;-69
2022/03/19 00:50:03;;;;;;;38.42;19.95;;;1.90;99.90;;;;;;5085617;28;20123;-69
2022/03/19 00:52:29;;;;;;;41.63;19.80;;;1.90;99.90;;;;;;5052947;28;20048;-68
2022/03/19 00:54:54;;;;;;;41.28;20.73;;;1.90;99.90;;;;;;5087677;28;20067;-69
2022/03/19 00:57:20;;;;;;;36.72;19.73;;;1.90;99.90;;;;;;5071813;28;20028;-69
2022/03/19 00:59:46;;;;;;;36.72;19.20;;;1.90;99.90;;;;;;5072966;28;20500;-69
2022/03/19 01:02:11;;;;;;;36.80;19.02;;;1.90;99.90;;;;;;5058801;28;20033;-69
2022/03/19 01:04:37;;;;;;;34.78;19.42;;;1.90;99.90;;;;;;5088272;28;20165;-69
2022/03/19 01:07:03;;;;;;;38.42;20.58;;;1.90;99.90;;;;;;5072969;28;20028;-68
2022/03/19 01:09:29;;;;;;;44.63;20.70;;;1.80;99.90;;;;;;5075859;28;20385;-69
2022/03/19 01:11:54;;;;;;;44.10;20.88;;;1.70;99.90;;;;;;5076744;28;20025;-68
2022/03/19 01:14:20;;;;;;;42.35;21.40;;;1.70;99.90;;;;;;5075027;28;20025;-69
2022/03/19 01:16:46;;;;;;;43.83;20.90;;;1.70;99.90;;;;;;5064133;28;20388;-69
2022/03/19 01:19:12;;;;;;;42.75;20.17;;;1.70;99.90;;;;;;5056543;28;20036;-69
2022/03/19 01:21:39;;;;;;;33.95;18.83;;;1.70;99.90;;;;;;5056861;28;20029;-69
2022/03/19 01:24:05;;;;;;;38.35;20.33;;;1.70;99.90;;;;;;5056550;28;20029;-69
2022/03/19 01:26:31;;;;;;;44.20;20.70;;;1.60;99.90;;;;;;5056437;28;20512;-69
2022/03/19 01:28:58;;;;;;;41.05;21.20;;;1.60;99.90;;;;;;5056486;28;20201;-69
2022/03/19 01:31:26;;;;;;;41.17;20.75;;;1.60;99.90;;;;;;5088452;28;20098;-69
2022/03/19 01:33:55;;;;;;;39.55;21.20;;;1.60;99.90;;;;;;5056399;28;20021;-68
2022/03/19 01:36:20;;;;;;;43.78;20.73;;;1.60;99.90;;;;;;5056290;28;20024;-69
2022/03/19 01:38:46;;;;;;;39.83;20.48;;;1.50;99.90;;;;;;5056850;28;20018;-69
2022/03/19 01:41:12;;;;;;;41.05;20.52;;;1.40;99.90;;;;;;5056231;28;20060;-69
2022/03/19 01:43:38;;;;;;;42.90;21.92;;;1.40;99.90;;;;;;5056178;28;20040;-69
2022/03/19 01:46:05;;;;;;;38.38;20.58;;;1.40;99.90;;;;;;5056152;28;20393;-69
2022/03/19 01:48:31;;;;;;;39.60;20.10;;;1.40;99.90;;;;;;5056389;28;20044;-69
2022/03/19 01:50:57;;;;;;;38.30;20.13;;;1.30;99.90;;;;;;5056206;28;20114;-69
2022/03/19 01:53:22;;;;;;;45.05;21.92;;;1.30;99.90;;;;;;5055993;28;20060;-69
2022/03/19 01:55:48;;;;;;;42.25;21.23;;;1.30;99.90;;;;;;5055959;28;20166;-69
2022/03/19 01:58:14;;;;;;;40.10;20.75;;;1.10;99.90;;;;;;5055789;28;20086;-69
2022/03/19 02:00:40;;;;;;;43.30;21.83;;;1.00;99.90;;;;;;5055809;28;20535;-69
2022/03/19 02:03:07;;;;;;;46.17;23.50;;;0.80;99.90;;;;;;5055779;28;20389;-69
2022/03/19 02:05:32;;;;;;;42.13;21.38;;;0.80;99.90;;;;;;5056119;28;20100;-69
2022/03/19 02:07:58;;;;;;;43.33;22.10;;;0.80;99.90;;;;;;5055760;28;20111;-69
2022/03/19 02:10:24;;;;;;;45.03;21.73;;;0.80;99.90;;;;;;5055548;28;20028;-69
2022/03/19 02:12:55;;;;;;;45.53;20.55;;;0.80;99.90;;;;;;5055661;28;20021;-69
2022/03/19 02:15:21;;;;;;;44.00;22.13;;;0.80;99.90;;;;;;5055910;28;20025;-69
2022/03/19 02:17:46;;;;;;;40.80;21.50;;;0.80;99.90;;;;;;5087910;28;20029;-69
2022/03/19 02:20:13;;;;;;;42.00;20.60;;;0.90;99.90;;;;;;5054458;28;20041;-69
2022/03/19 02:22:39;;;;;;;37.47;19.92;;;0.90;99.90;;;;;;5055445;28;20025;-69
2022/03/19 02:27:50;;;;;;;36.63;19.48;;;0.90;99.90;;;;;;5055985;28;20032;-69
2022/03/19 02:30:16;;;;;;;37.90;19.48;;;0.90;99.90;;;;;;5055181;28;20473;-69
2022/03/19 02:32:49;;;;;;;43.10;20.58;;;0.90;99.90;;;;;;5055564;28;20017;-69
2022/03/19 02:35:17;;;;;;;44.50;22.27;;;0.90;99.90;;;;;;5055283;28;20049;-69
2022/03/19 02:37:48;;;;;;;42.42;21.70;;;0.90;99.90;;;;;;5055154;28;20374;-69
2022/03/19 02:40:16;;;;;;;44.28;21.55;;;0.90;99.90;;;;;;5055344;28;20110;-69
2022/03/19 02:42:42;;;;;;;39.17;19.83;;;0.80;99.90;;;;;;5055055;28;20052;-68
2022/03/19 02:45:08;;;;;;;37.67;19.77;;;0.80;99.90;;;;;;5055075;28;20049;-69
2022/03/19 02:47:57;;;;;;;36.40;18.58;;;0.80;99.90;;;;;;5054987;28;20029;-69
2022/03/19 02:50:22;;;;;;;41.65;20.65;;;0.80;99.90;;;;;;5054651;28;20102;-68
2022/03/19 02:52:47;;;;;;;37.60;18.90;;;0.60;99.90;;;;;;5055497;28;20017;-68
2022/03/19 02:55:13;;;;;;;37.95;20.13;;;0.50;99.90;;;;;;5054849;28;20025;-69
2022/03/19 02:57:39;;;;;;;41.05;19.13;;;0.50;99.90;;;;;;5054668;28;20083;-69
2022/03/19 03:00:05;;;;;;;37.53;19.67;;;0.50;99.90;;;;;;5054957;28;20017;-69
2022/03/19 03:02:31;;;;;;;39.75;21.33;;;0.40;99.90;;;;;;5054735;28;20021;-69
2022/03/19 03:04:57;;;;;;;45.10;23.45;;;0.40;99.90;;;;;;5054711;28;20025;-69
2022/03/19 03:07:22;;;;;;;58.17;28.45;;;0.50;99.90;;;;;;5054893;28;20073;-69
2022/03/19 03:09:48;;;;;;;51.90;26.92;;;0.50;99.90;;;;;;5053308;28;20075;-68
2022/03/19 03:12:14;;;;;;;48.38;23.90;;;0.50;99.90;;;;;;5054713;28;20025;-69
2022/03/19 03:14:40;;;;;;;46.20;22.48;;;0.50;99.90;;;;;;5054480;28;20032;-69
2022/03/19 03:17:05;;;;;;;41.40;21.15;;;0.50;99.90;;;;;;5054422;28;20027;-69
2022/03/19 03:19:32;;;;;;;40.08;20.27;;;0.50;99.90;;;;;;5054315;28;20025;-69
2022/03/19 03:21:58;;;;;;;40.60;21.33;;;0.50;99.90;;;;;;5054321;28;20024;-69
2022/03/19 03:24:25;;;;;;;36.50;19.73;;;0.50;99.90;;;;;;5054323;28;20029;-68
2022/03/19 03:26:51;;;;;;;38.80;19.60;;;0.50;99.90;;;;;;5054245;28;20029;-68
2022/03/19 03:29:17;;;;;;;39.17;18.55;;;0.50;99.90;;;;;;5054406;28;20043;-68
2022/03/19 03:31:43;;;;;;;45.35;22.55;;;0.50;99.90;;;;;;5053778;28;20033;-68
2022/03/19 03:34:09;;;;;;;44.95;24.17;;;0.40;99.90;;;;;;5054411;28;20032;-68
2022/03/19 03:36:35;;;;;;;42.42;22.40;;;0.20;99.90;;;;;;5054335;28;20017;-67
2022/03/19 03:39:01;;;;;;;47.10;24.60;;;0.10;99.90;;;;;;5053989;28;20044;-68
2022/03/19 03:41:26;;;;;;;46.75;24.30;;;0.00;99.90;;;;;;5053880;28;20021;-68
2022/03/19 03:43:52;;;;;;;53.00;25.50;;;-0.10;99.90;;;;;;5053896;28;20032;-68
2022/03/19 03:46:18;;;;;;;52.40;24.50;;;-0.10;99.90;;;;;;5054181;28;20415;-68
2022/03/19 03:48:43;;;;;;;47.60;23.77;;;-0.10;99.90;;;;;;5053865;28;20021;-68
2022/03/19 03:51:11;;;;;;;44.20;22.73;;;0.00;99.90;;;;;;5053916;28;20110;-68
2022/03/19 03:53:38;;;;;;;47.70;22.77;;;-0.10;99.90;;;;;;5054036;28;20025;-68
2022/03/19 03:56:04;;;;;;;40.75;20.95;;;0.00;99.90;;;;;;5053651;28;20025;-68
2022/03/19 03:58:31;;;;;;;46.47;22.35;;;0.00;99.90;;;;;;5053658;28;20036;-68
2022/03/19 04:00:57;;;;;;;41.85;22.10;;;0.00;99.90;;;;;;5053869;28;20367;-68
2022/03/19 04:03:22;;;;;;;41.83;21.55;;;0.10;99.90;;;;;;5053592;28;20078;-68
2022/03/19 04:05:49;;;;;;;47.65;22.48;;;0.10;99.90;;;;;;5085926;28;20392;-68
2022/03/19 04:08:15;;;;;;;42.33;21.25;;;0.10;99.90;;;;;;5053546;28;20044;-68
2022/03/19 04:10:41;;;;;;;45.80;21.70;;;0.10;99.90;;;;;;5053433;28;20385;-68
2022/03/19 04:13:06;;;;;;;43.00;21.33;;;0.00;99.90;;;;;;5053498;28;20025;-68
2022/03/19 04:15:32;;;;;;;38.50;19.30;;;0.00;99.90;;;;;;5053442;28;20028;-68
2022/03/19 04:17:58;;;;;;;44.38;22.65;;;0.00;99.90;;;;;;5053447;28;20025;-68
2022/03/19 04:20:24;;;;;;;42.33;22.80;;;0.00;99.90;;;;;;5085552;28;20025;-68
2022/03/19 04:22:51;;;;;;;41.50;20.83;;;0.00;99.90;;;;;;5053978;28;20370;-68
2022/03/19 04:25:19;;;;;;;43.25;21.80;;;0.00;99.90;;;;;;5053672;28;20021;-68
2022/03/19 04:27:47;;;;;;;45.22;22.75;;;0.10;99.90;;;;;;5053315;28;20025;-68
2022/03/19 04:30:13;;;;;;;41.92;21.73;;;0.00;99.90;;;;;;5085684;28;20033;-68
2022/03/19 04:32:41;;;;;;;46.53;21.73;;;0.10;99.90;;;;;;5053179;28;20029;-68
2022/03/19 04:36:29;;;;;;;46.45;22.65;;;0.10;99.90;;;;;;5053533;28;20013;-68
2022/03/19 04:37:56;;;;;;;46.00;21.38;;;0.10;99.90;;;;;;5053195;28;20068;-68
2022/03/19 04:40:22;;;;;;;42.45;20.35;;;0.10;99.90;;;;;;5085375;28;20048;-68
2022/03/19 04:42:47;;;;;;;39.60;20.27;;;0.00;99.90;;;;;;5054636;28;20102;-68
2022/03/19 04:45:13;;;;;;;39.88;19.33;;;0.00;99.90;;;;;;5057555;28;20039;-68
2022/03/19 04:47:39;;;;;;;37.03;19.77;;;0.00;99.90;;;;;;5057256;28;20105;-68
2022/03/19 04:50:06;;;;;;;39.92;19.33;;;0.00;99.90;;;;;;5057144;28;20060;-68
2022/03/19 04:52:34;;;;;;;39.88;18.58;;;0.00;99.90;;;;;;5057216;28;20032;-68
2022/03/19 04:55:00;;;;;;;41.53;20.35;;;-0.10;99.90;;;;;;5057011;28;20393;-68
2022/03/19 04:57:30;;;;;;;41.28;20.67;;;-0.10;99.90;;;;;;5057060;28;20025;-68
2022/03/19 04:59:57;;;;;;;41.70;20.05;;;-0.10;99.90;;;;;;5089340;28;20112;-68
2022/03/19 05:02:24;;;;;;;40.17;19.60;;;-0.10;99.90;;;;;;5057000;28;20111;-68
2022/03/19 05:04:51;;;;;;;39.97;19.67;;;-0.10;99.90;;;;;;5056464;28;20044;-68
2022/03/19 05:07:19;;;;;;;38.75;20.65;;;-0.10;99.90;;;;;;5056967;28;20029;-68
2022/03/19 05:12:31;;;;;;;40.28;19.80;;;-0.20;99.90;;;;;;5057177;28;20520;-68
2022/03/19 05:14:57;;;;;;;35.22;17.75;;;-0.20;99.90;;;;;;5089012;28;20385;-69
2022/03/19 05:17:23;;;;;;;42.60;20.10;;;-0.20;99.90;;;;;;5056677;28;20017;-69
2022/03/19 05:19:49;;;;;;;40.25;19.65;;;-0.10;99.90;;;;;;5056798;28;20021;-69
2022/03/19 05:22:14;;;;;;;42.58;21.23;;;-0.10;99.90;;;;;;5057128;28;20070;-69
2022/03/19 05:24:41;;;;;;;38.00;18.75;;;-0.20;99.90;;;;;;5056466;28;20074;-69
2022/03/19 05:27:08;;;;;;;38.42;19.20;;;-0.20;99.90;;;;;;5056579;28;20036;-69
2022/03/19 05:29:34;;;;;;;38.30;18.63;;;-0.20;99.90;;;;;;5056422;28;20508;-69
2022/03/19 05:31:59;;;;;;;37.78;19.30;;;-0.10;99.90;;;;;;5056621;28;20029;-69
2022/03/19 05:34:31;;;;;;;44.72;21.83;;;-0.20;99.90;;;;;;5057176;28;20044;-69
2022/03/19 05:36:58;;;;;;;40.33;20.30;;;-0.10;99.90;;;;;;5056340;28;20075;-69
2022/03/19 05:39:26;;;;;;;46.30;21.15;;;-0.10;99.90;;;;;;5056217;28;20023;-69
2022/03/19 05:41:52;;;;;;;40.83;20.20;;;-0.10;99.90;;;;;;5056527;28;20025;-69
2022/03/19 05:44:18;;;;;;;46.28;20.52;;;-0.10;99.90;;;;;;5056255;28;20107;-69
2022/03/19 05:46:44;;;;;;;39.22;19.33;;;-0.10;99.90;;;;;;5056174;28;20029;-69
2022/03/19 05:49:10;;;;;;;39.47;20.00;;;-0.10;99.90;;;;;;5056017;28;20040;-69
2022/03/19 05:51:35;;;;;;;41.33;20.77;;;-0.10;99.90;;;;;;5056267;28;20082;-69
2022/03/19 05:54:02;;;;;;;44.13;21.00;;;0.00;99.90;;;;;;5056268;28;20021;-69
2022/03/19 05:56:28;;;;;;;46.63;22.08;;;0.00;99.90;;;;;;5055865;28;20017;-70
2022/03/19 05:58:55;;;;;;;53.17;23.08;;;0.00;99.90;;;;;;5055921;28;20040;-69
2022/03/19 06:01:26;;;;;;;49.00;22.65;;;0.10;99.90;;;;;;5055830;28;20500;-69
2022/03/19 06:03:54;;;;;;;50.35;23.02;;;0.10;99.90;;;;;;5056051;28;20102;-69
2022/03/19 06:06:19;;;;;;;58.65;26.75;;;0.10;99.90;;;;;;5055797;28;20470;-69
2022/03/19 06:08:45;;;;;;;57.20;27.02;;;0.20;99.90;;;;;;5055756;28;20029;-69
2022/03/19 06:11:11;;;;;;;60.70;28.70;;;0.20;99.90;;;;;;5055574;28;20385;-69
2022/03/19 06:13:37;;;;;;;49.03;26.50;;;0.20;99.90;;;;;;5055656;28;20013;-69
2022/03/19 06:16:02;;;;;;;52.55;25.10;;;0.30;99.90;;;;;;5055612;28;20037;-70
2022/03/19 06:18:28;;;;;;;48.30;23.27;;;0.30;99.90;;;;;;5055646;28;20072;-70
2022/03/19 06:20:56;;;;;;;48.10;23.50;;;0.40;99.90;;;;;;5055473;28;20029;-70
2022/03/19 06:23:22;;;;;;;53.17;26.40;;;0.50;99.90;;;;;;5055577;28;20116;-69
2022/03/19 06:25:48;;;;;;;56.03;25.92;;;0.50;99.90;;;;;;5055512;28;20086;-70
2022/03/19 06:28:14;;;;;;;49.92;24.48;;;0.50;99.90;;;;;;5055470;28;20393;-70
2022/03/19 06:30:40;;;;;;;53.20;25.13;;;0.50;99.90;;;;;;5055213;28;20025;-70
2022/03/19 06:33:06;;;;;;;61.13;28.95;;;0.40;99.90;;;;;;5055284;28;20469;-70
2022/03/19 06:38:17;;;;;;;72.20;31.02;;;0.50;99.90;;;;;;5055263;28;20147;-69
2022/03/19 06:40:43;;;;;;;65.72;29.58;;;0.40;99.90;;;;;;5087354;28;20508;-70
2022/03/19 06:43:08;;;;;;;72.55;30.95;;;0.50;99.90;;;;;;5053825;28;20051;-69
2022/03/19 06:45:34;;;;;;;70.45;30.02;;;0.50;99.90;;;;;;5055216;28;20032;-70
2022/03/19 06:48:00;;;;;;;68.55;30.58;;;0.50;99.90;;;;;;5055307;28;20082;-70
2022/03/19 06:50:25;;;;;;;63.70;28.30;;;0.50;99.90;;;;;;5054952;28;20064;-70
2022/03/19 06:52:51;;;;;;;66.75;29.67;;;0.50;99.90;;;;;;5054917;28;20021;-70
2022/03/19 06:55:17;;;;;;;61.83;29.00;;;0.60;99.90;;;;;;5054796;28;20025;-69
2022/03/19 06:57:42;;;;;;;55.55;27.02;;;0.60;99.90;;;;;;5054741;28;20037;-70
2022/03/19 07:00:08;;;;;;;50.28;26.08;;;0.70;99.90;;;;;;5055237;28;20453;-70
2022/03/19 07:02:49;;;;;;;52.60;26.00;;;0.70;99.90;;;;;;5055119;28;20021;-70
2022/03/19 07:05:21;;;;;;;49.87;25.10;;;0.80;99.90;;;;;;5054808;28;20531;-70
2022/03/19 07:07:48;;;;;;;54.95;25.80;;;0.80;99.90;;;;;;5086993;28;20112;-70
2022/03/19 07:10:15;;;;;;;50.85;25.63;;;0.80;99.90;;;;;;5054505;28;20032;-70
2022/03/19 07:12:45;;;;;;;46.67;24.13;;;0.80;99.90;;;;;;5054606;28;20021;-70
2022/03/19 07:15:16;;;;;;;46.47;23.90;;;0.90;99.90;;;;;;5054592;28;20049;-69
2022/03/19 07:17:43;;;;;;;47.30;24.15;;;1.00;99.90;;;;;;5054702;28;20017;-70
2022/03/19 07:20:10;;;;;;;47.42;23.55;;;1.00;99.90;;;;;;5054350;28;20017;-68
2022/03/19 07:22:51;;;;;;;60.75;28.15;;;1.00;99.90;;;;;;5054361;28;20041;-69
2022/03/19 07:25:19;;;;;;;56.47;27.60;;;1.00;99.90;;;;;;5054298;28;20032;-70
2022/03/19 07:27:46;;;;;;;57.60;26.30;;;1.00;99.90;;;;;;5053029;28;20107;-70
2022/03/19 07:30:12;;;;;;;61.50;27.58;;;1.00;99.90;;;;;;5054029;28;20028;-70
2022/03/19 07:32:38;;;;;;;56.33;26.75;;;1.00;99.90;;;;;;5054126;28;20017;-70
2022/03/19 07:35:06;;;;;;;56.70;26.83;;;1.10;99.90;;;;;;5054150;28;20095;-70
2022/03/19 07:37:33;;;;;;;53.45;25.98;;;1.10;99.90;;;;;;5054365;28;20017;-70
2022/03/19 07:39:59;;;;;;;56.92;27.35;;;1.10;99.90;;;;;;5053986;28;20470;-70
2022/03/19 07:42:25;;;;;;;58.92;27.08;;;1.20;99.90;;;;;;5052709;28;20535;-71
2022/03/19 07:44:51;;;;;;;58.00;27.75;;;1.20;99.90;;;;;;5054166;28;20033;-71
2022/03/19 07:47:17;;;;;;;56.13;28.00;;;1.30;99.90;;;;;;5054107;28;20037;-70
2022/03/19 07:49:43;;;;;;;58.80;26.67;;;1.30;99.90;;;;;;5052406;28;20032;-70
2022/03/19 07:52:09;;;;;;;61.25;28.70;;;1.40;99.90;;;;;;5053429;28;20473;-70
2022/03/19 07:54:36;;;;;;;61.25;29.17;;;1.50;99.90;;;;;;5053805;28;20029;-70
2022/03/19 07:57:06;;;;;;;72.18;29.30;;;1.60;99.90;;;;;;5053598;28;20024;-70
2022/03/19 07:59:35;;;;;;;63.10;29.67;;;1.60;99.90;;;;;;5085834;28;20057;-70
2022/03/19 08:02:00;;;;;;;61.38;28.38;;;1.70;99.90;;;;;;5053633;28;20366;-70
2022/03/19 08:04:26;;;;;;;59.85;29.77;;;1.70;99.90;;;;;;5085917;28;20028;-70
2022/03/19 08:06:53;;;;;;;64.40;29.70;;;1.70;99.90;;;;;;5053885;28;20029;-70
2022/03/19 08:09:19;;;;;;;80.40;30.70;;;1.70;99.90;;;;;;5054058;28;20048;-70
2022/03/19 08:11:46;;;;;;;60.42;26.70;;;1.70;99.90;;;;;;5053353;28;20021;-70
2022/03/19 08:14:14;;;;;;;59.22;28.50;;;1.70;99.90;;;;;;5053443;28;20024;-70
2022/03/19 08:16:41;;;;;;;53.35;26.63;;;1.80;99.90;;;;;;5053099;28;20017;-69
2022/03/19 08:19:08;;;;;;;48.10;24.33;;;1.90;99.90;;;;;;5053462;28;20028;-70
2022/03/19 08:21:34;;;;;;;53.78;27.00;;;2.00;99.90;;;;;;5053576;28;20025;-70
2022/03/19 08:24:00;;;;;;;57.15;27.58;;;2.10;99.90;;;;;;5053241;28;20054;-70
2022/03/19 08:26:26;;;;;;;56.60;26.42;;;2.10;99.90;;;;;;5053275;28;20059;-70
2022/03/19 08:28:51;;;;;;;54.13;27.10;;;2.20;99.90;;;;;;5053506;28;20075;-70
2022/03/19 08:31:17;;;;;;;60.15;30.02;;;2.30;99.90;;;;;;5053047;28;20033;-70
2022/03/19 08:33:43;;;;;;;57.70;29.30;;;2.30;99.90;;;;;;5053501;28;20025;-70
2022/03/19 08:36:09;;;;;;;64.45;30.23;;;2.30;99.90;;;;;;5053638;28;20347;-70
2022/03/19 08:41:19;;;;;;;53.47;27.05;;;2.40;99.90;;;;;;5054921;28;20401;-70
2022/03/19 08:43:45;;;;;;;63.53;31.60;;;2.50;99.90;;;;;;5073159;28;20028;-70
2022/03/19 08:46:11;;;;;;;63.20;31.85;;;2.60;99.90;;;;;;5073037;28;20017;-70
2022/03/19 08:48:37;;;;;;;66.15;31.23;;;2.60;99.90;;;;;;5071237;28;20477;-70
2022/03/19 08:53:48;;;;;;;64.88;32.70;;;2.70;99.90;;;;;;5073627;28;20451;-70
2022/03/19 08:56:13;;;;;;;61.33;31.90;;;2.80;99.90;;;;;;5073015;28;20025;-70
2022/03/19 08:58:39;;;;;;;67.68;33.65;;;2.90;99.90;;;;;;5072966;28;20029;-70
2022/03/19 09:01:05;;;;;;;64.97;33.00;;;3.00;99.90;;;;;;5072873;28;20024;-69
2022/03/19 09:03:32;;;;;;;63.22;32.20;;;3.10;99.90;;;;;;5073302;28;20082;-69
2022/03/19 09:05:58;;;;;;;69.35;36.38;;;3.10;99.90;;;;;;5072951;28;20095;-69
2022/03/19 09:08:24;;;;;;;71.28;35.00;;;3.30;99.90;;;;;;5073195;28;20024;-69
2022/03/19 09:10:49;;;;;;;65.90;34.25;;;3.30;99.90;;;;;;5072685;28;20384;-69
2022/03/19 09:13:15;;;;;;;71.07;35.97;;;3.40;99.90;;;;;;5072820;28;20029;-69
2022/03/19 09:15:41;;;;;;;83.93;39.90;;;3.50;99.90;;;;;;5072813;28;20066;-69
2022/03/19 09:18:06;;;;;;;81.55;41.90;;;3.60;99.90;;;;;;5072675;28;20021;-69
2022/03/19 09:20:32;;;;;;;81.55;40.47;;;3.70;99.90;;;;;;5072928;28;20123;-69
2022/03/19 09:22:58;;;;;;;70.60;37.45;;;3.80;99.90;;;;;;5072619;28;20033;-68
2022/03/19 09:25:24;;;;;;;72.00;36.58;;;3.90;99.90;;;;;;5073067;28;20021;-68
2022/03/19 09:27:49;;;;;;;67.53;33.83;;;4.00;99.90;;;;;;5072664;28;20059;-68
2022/03/19 09:30:15;;;;;;;64.18;32.40;;;4.10;99.90;;;;;;5076041;28;20036;-69
2022/03/19 09:32:41;;;;;;;65.75;32.30;;;4.20;99.90;;;;;;5076629;28;20096;-69
2022/03/19 09:35:08;;;;;;;66.70;33.63;;;4.20;99.90;;;;;;5075043;28;20063;-69
2022/03/19 09:37:34;;;;;;;60.13;30.77;;;4.30;99.90;;;;;;5076435;28;20029;-69
2022/03/19 09:40:00;;;;;;;61.10;31.13;;;4.40;99.90;;;;;;5075985;28;20100;-69
2022/03/19 09:42:28;;;;;;;55.85;29.58;;;4.50;99.90;;;;;;5075407;28;20456;-68
2022/03/19 09:44:54;;;;;;;62.47;31.23;;;4.50;99.90;;;;;;5075854;28;20391;-69
2022/03/19 09:47:20;;;;;;;63.83;32.15;;;4.70;99.90;;;;;;5070390;28;20025;-69
2022/03/19 09:49:45;;;;;;;60.88;31.20;;;4.80;99.90;;;;;;5071336;28;20358;-69
2022/03/19 09:52:12;;;;;;;61.72;30.83;;;4.90;99.90;;;;;;5059895;28;20047;-70
2022/03/19 09:54:39;;;;;;;60.45;31.45;;;5.00;99.90;;;;;;5059999;28;20021;-68
2022/03/19 09:57:05;;;;;;;54.97;29.63;;;5.10;99.90;;;;;;5074698;28;20496;-68
2022/03/19 09:59:31;;;;;;;56.20;29.25;;;5.10;99.90;;;;;;5074553;28;20035;-68
2022/03/19 10:01:57;;;;;;;54.97;29.08;;;5.30;99.90;;;;;;5076367;28;20099;-68
2022/03/19 10:04:23;;;;;;;46.45;25.08;;;5.30;99.90;;;;;;5072407;28;20021;-67
2022/03/19 10:09:40;;;;;;;51.85;27.50;;;5.40;99.90;;;;;;5073503;28;20060;-68
2022/03/19 10:12:12;;;;;;;50.08;26.95;;;5.50;99.90;;;;;;5072744;28;20025;-68
2022/03/19 10:14:38;;;;;;;49.47;25.38;;;5.60;99.90;;;;;;5070547;28;20089;-68
2022/03/19 10:17:04;;;;;;;48.38;25.27;;;5.80;99.90;;;;;;5063608;28;20481;-68
2022/03/19 10:19:29;;;;;;;49.22;25.42;;;5.90;99.90;;;;;;5061550;28;20430;-67
2022/03/19 10:22:08;;;;;;;45.15;23.63;;;6.10;99.90;;;;;;5068699;28;20029;-67
2022/03/19 10:24:36;;;;;;;48.00;27.17;;;6.30;99.90;;;;;;5072231;28;20029;-68
2022/03/19 10:27:02;;;;;;;45.97;25.92;;;6.50;99.90;;;;;;5058088;28;20052;-68
2022/03/19 10:29:31;;;;;;;48.00;26.60;;;6.70;99.90;;;;;;5058998;28;20378;-68
2022/03/19 10:32:03;;;;;;;40.03;21.52;;;6.80;99.90;;;;;;5071378;28;20067;-67
2022/03/19 10:34:30;;;;;;;35.55;19.65;;;6.90;99.90;;;;;;5056272;28;20531;-68
2022/03/19 10:36:56;;;;;;;39.05;19.25;;;7.00;99.90;;;;;;5055507;28;20377;-68
2022/03/19 10:39:27;;;;;;;36.40;19.45;;;7.20;99.90;;;;;;5074397;28;20023;-67
2022/03/19 10:41:56;;;;;;;31.33;17.73;;;7.40;99.50;;;;;;5072589;28;20498;-68
2022/03/19 10:44:26;;;;;;;34.70;18.65;;;7.50;98.50;;;;;;5067947;28;20025;-67
2022/03/19 10:46:57;;;;;;;30.27;17.80;;;7.60;98.40;;;;;;5055526;28;20021;-68
2022/03/19 10:49:27;;;;;;;30.77;17.60;;;7.80;97.20;;;;;;5054982;28;20049;-67
2022/03/19 10:51:54;;;;;;;32.63;18.35;;;7.90;96.60;;;;;;5055449;28;20108;-68
2022/03/19 10:54:22;;;;;;;33.55;18.40;;;8.10;96.10;;;;;;5054907;28;20021;-67
2022/03/19 10:56:49;;;;;;;53.92;19.83;;;8.20;95.80;;;;;;5054910;28;20021;-67
2022/03/19 10:59:15;;;;;;;45.35;19.60;;;8.30;95.40;;;;;;5055060;28;20078;-68
2022/03/19 11:01:44;;;;;;;28.50;16.80;;;8.50;95.70;;;;;;5055096;28;20037;-68
2022/03/19 11:04:11;;;;;;;29.63;17.45;;;8.50;93.50;;;;;;5053375;28;20029;-67
2022/03/19 11:06:43;;;;;;;25.52;14.35;;;8.60;93.90;;;;;;5054858;28;20029;-67
2022/03/19 11:09:13;;;;;;;26.50;14.30;;;8.80;84.80;;;;;;5054767;28;20025;-67
2022/03/19 11:12:00;;;;;;;25.02;14.32;;;8.80;83.20;;;;;;5054521;28;20031;-67
2022/03/19 11:14:30;;;;;;;27.23;15.27;;;8.90;78.10;;;;;;5054731;28;20458;-67
2022/03/19 11:17:24;;;;;;;24.55;14.55;;;8.90;76.90;;;;;;5067626;28;20032;-67
2022/03/19 11:19:51;;;;;;;26.58;13.82;;;8.90;76.90;;;;;;5068571;28;20091;-67
2022/03/19 11:22:17;;;;;;;25.30;13.43;;;8.90;76.40;;;;;;5055106;28;20393;-67
2022/03/19 11:25:08;;;;;;;27.25;14.82;;;9.00;78.50;;;;;;5063136;28;20047;-67
2022/03/19 11:27:41;;;;;;;28.70;15.48;;;9.00;75.60;;;;;;5071331;28;20504;-67
2022/03/19 11:30:18;;;;;;;25.08;14.48;;;9.00;77.50;;;;;;5074089;28;20021;-66
2022/03/19 11:32:59;;;;;;;;;;;9.10;76.30;;;;;;5074051;28;20024;-66
2022/03/19 11:35:26;;;;;;;22.85;14.30;;;9.20;73.20;;;;;;5074955;28;20268;-66
2022/03/19 11:38:13;;;;;;;25.13;15.10;;;9.10;72.80;;;;;;5054496;28;20090;-66
2022/03/19 11:40:42;;;;;;;;;;;9.10;75.10;;;;;;5053841;28;20029;-66
2022/03/19 11:43:09;;;;;;;23.42;14.02;;;9.20;72.10;;;;;;5053484;28;20257;-66
2022/03/19 11:45:41;;;;;;;;;;;9.20;73.60;;;;;;5085386;28;20029;-66
2022/03/19 11:48:52;;;;;;;27.05;15.60;;;9.20;72.70;;;;;;5052547;28;19952;-66
2022/03/19 11:51:37;;;;;;;28.15;14.88;;;9.20;74.20;;;;;;5052229;28;20481;-66
2022/03/19 11:54:11;;;;;;;26.67;15.82;;;9.20;74.20;;;;;;5053369;28;20056;-68
2022/03/19 11:56:42;;;;;;;;;;;9.30;74.20;;;;;;5052851;28;20017;-67
2022/03/19 11:59:31;;;;;;;;;;;9.40;74.40;;;;;;5051837;28;19915;-67
2022/03/19 12:01:58;;;;;;;;;;;9.40;72.90;;;;;;5052356;28;19927;-67
2022/03/19 12:04:24;;;;;;;;;;;9.50;73.00;;;;;;5053046;28;19964;-67
2022/03/19 12:06:51;;;;;;;;;;;9.50;72.40;;;;;;5053242;28;20312;-68
2022/03/19 12:09:17;;;;;;;;;;;9.50;72.40;;;;;;5052929;28;19904;-67
2022/03/19 12:12:02;;;;;;;;;;;9.60;72.80;;;;;;5062772;28;19966;-67
2022/03/19 12:14:28;;;;;;;;;;;9.60;72.80;;;;;;5069608;28;19919;-68
2022/03/19 12:16:53;;;;;;;;;;;9.70;70.70;;;;;;5053566;28;19904;-67
2022/03/19 12:19:39;;;;;;;;;;;9.80;71.30;;;;;;5052696;28;19905;-67
2022/03/19 12:22:04;;;;;;;;;;;9.80;70.70;;;;;;5053388;28;19953;-68
2022/03/19 12:24:33;;;;;;;;;;;9.80;68.10;;;;;;5052562;28;19905;-68
2022/03/19 12:26:58;;;;;;;;;;;9.80;69.70;;;;;;5052335;28;20257;-67
2022/03/19 12:29:30;;;;;;;;;;;9.90;66.80;;;;;;5052891;28;19920;-68
2022/03/19 12:31:55;;;;;;;;;;;9.80;69.00;;;;;;5053377;28;19970;-67
2022/03/19 12:34:22;;;;;;;;;;;9.80;68.80;;;;;;5053279;28;20385;-66
2022/03/19 12:36:48;;;;;;;;;;;9.90;67.70;;;;;;5053559;28;19911;-67
2022/03/19 12:39:14;;;;;;;;;;;9.80;68.60;;;;;;5051817;28;19904;-67
2022/03/19 12:41:40;;;;;;;;;;;9.80;68.40;;;;;;5053017;28;19905;-67
2022/03/19 12:44:26;;;;;;;;;;;9.90;69.30;;;;;;5053813;28;20345;-67
2022/03/19 12:46:53;;;;;;;;;;;9.90;68.70;;;;;;5052943;28;19905;-67
2022/03/19 12:49:18;;;;;;;;;;;10.00;69.00;;;;;;5053062;28;19909;-66
2022/03/19 12:51:45;;;;;;;;;;;10.00;69.40;;;;;;5053396;28;24121;-66
2022/03/19 12:54:21;;;;;;;;;;;10.00;64.40;;;;;;5053521;28;19905;-67
2022/03/19 12:56:47;;;;;;;;;;;9.90;65.30;;;;;;5053046;28;20357;-67
2022/03/19 12:59:18;;;;;;;;;;;9.90;66.40;;;;;;5051851;28;19923;-67
2022/03/19 13:01:44;;;;;;;;;;;10.00;65.80;;;;;;5051828;28;19905;-67
2022/03/19 13:04:17;;;;;;;;;;;10.00;66.00;;;;;;5053132;28;24072;-67